Elfrida, Arizona
Current Conditions -  °F | °C
As of 4:56 PM on Friday 19 Dec 2014 (Local Time) from KDUG Reporting Station
Clear Clear  
Wind Chill: 52°   Ceiling: Unl
Heat Index: 52°   Visibility: 10mi
Dew Point: 33°   Wind: 5mph
Humidity: 49%   Direction: 340°NNW
Pressure: 30.13"   Gusts: NA
Location:  31.69°N, 109.69°W
Report Text: KDUG 192356Z AUTO 34004KT 10SM CLR 11/01 A3013 RMK AO2 SLP191 T01110006 10139 20078 56005
Loading
Personal Weather Stations






























Interactive Weather Map New forecast layout! Learn more

10-Day Weather Forecast

Advertisements
Track Severe Weather on mobile